Terminal Aerodrome Forecast
Issued by NWS

Home | Current Version | Previous Version | Text Only | Print | Product List | Glossary On
Versions: 1 2 3 4 5 6 7 8 9 10 11 12 13 14 15 16 17 18 19 20
000
FTUS44 KLIX 161731
TAFHUM
TAF
KHUM 161731Z 1618/1718 16013KT P6SM BKN060
     FM170000 15009KT P6SM BKN090
     FM170600 15008KT 3SM BR BKN045
     FM170900 16006KT 3SM BR BKN010
     FM171000 16006KT 2SM BR BKN010
     FM171200 16008KT P6SM BKN008
     FM171300 16008KT P6SM BKN003
     FM171700 17009KT P6SM BKN015=

USA.gov is the U.S. government's official web portal to all federal, state and local government web resources and services.